This is the latest recevied weather packets stored in our database for station/object DL2DHM-13. If no packets are shown the sender has not sent any weather packets the latest 10 day(s).
| Time | Temp. | Humidity | Pressure | Rain* | Wind** | Luminosity | Snow |
|---|---|---|---|---|---|---|---|
| 1777168843 | 3.33° C | 89% | 1021.6 hPa | 0 mm | - | 0 W/m² | - |
| 1777166419 | 4.44° C | 88% | 1021.2 hPa | 0 mm | - | 0 W/m² | - |
| 1777166117 | 4.44° C | 88% | 1021.1 hPa | 0 mm | - | 0 W/m² | - |
| 1777164614 | 4.44° C | 88% | 1020.9 hPa | 0 mm | - | 0 W/m² | - |
| 1777164013 | 4.44° C | 88% | 1020.7 hPa | 0 mm | - | 0 W/m² | - |
| 1777163112 | 4.44° C | 87% | 1020.6 hPa | 0 mm | - | 0 W/m² | - |
| 1777162811 | 4.44° C | 87% | 1020.6 hPa | 0 mm | - | 0 W/m² | - |
| 1777161910 | 5° C | 86% | 1020.5 hPa | 0 mm | - | 0 W/m² | - |
| 1777161613 | 5° C | 86% | 1020.5 hPa | 0 mm | - | 0 W/m² | - |
| 1777159807 | 5° C | 87% | 1020.3 hPa | 0 mm | - | 0 W/m² | - |
| 1777156859 | 5.56° C | 84% | 1020.1 hPa | 0 mm | - | 0 W/m² | - |
| 1777155956 | 6.11° C | 83% | 1020 hPa | 0 mm | - | 0 W/m² | - |
| 1777153245 | 7.22° C | 82% | 1019.6 hPa | 0 mm | - | 0 W/m² | - |
| 1777152945 | 7.22° C | 82% | 1019.5 hPa | 0 mm | - | 0 W/m² | - |
| 1777151743 | 7.78° C | 80% | 1019.3 hPa | 0 mm | - | 0 W/m² | - |
| 1777151446 | 7.78° C | 80% | 1019.2 hPa | 0 mm | - | 0 W/m² | - |
| 1777150847 | 7.78° C | 78% | 1019 hPa | 0 mm | - | 0 W/m² | - |
| 1777150540 | 8.33° C | 78% | 1018.9 hPa | 0 mm | - | 0 W/m² | - |
| 1777149941 | 8.33° C | 77% | 1018.7 hPa | 0 mm | - | 0 W/m² | - |
| 1777147244 | 10° C | 72% | 1017.9 hPa | 0 mm | - | 0 W/m² | - |
| 1777145439 | 11.11° C | 68% | 1017.5 hPa | 0 mm | - | 0 W/m² | - |
| 1777143034 | 11.67° C | 62% | 1016.5 hPa | 0 mm | - | 0 W/m² | - |
| 1777141852 | 12.22° C | 61% | 1016.3 hPa | 0 mm | - | 7 W/m² | - |
| 1777141294 | 12.78° C | 60% | 1016.3 hPa | 0 mm | - | 12 W/m² | - |
| 1777140932 | 12.78° C | 59% | 1016.2 hPa | 0 mm | - | 14 W/m² | - |
* Rain latest hour (hover to see other rain measurements)
** Current wind speed in m/s (hover to see current wind gust speed)